TimeGMT,TemperatureF,Dew PointF,Humidity,Sea Level PressureIn,VisibilityMPH,Wind Direction,Wind SpeedMPH,Gust SpeedMPH,PrecipitationIn,Events,Conditions,WindDirDegrees,DateUTC
12:03 AM,23.0,23.0,100,30.11,0.2,Variable,1.2,-,N/A,Fog-Rain,Light Freezing Rain,0,2013-01-25 00:03:00
12:12 AM,23.0,21.2,93,30.11,0.5,Calm,Calm,-,N/A,Fog-Rain,Light Freezing Rain,50,2013-01-25 00:12:00
12:17 AM,23.0,21.2,93,30.11,0.5,South,2.3,-,N/A,Fog,Light Freezing Fog,170,2013-01-25 00:17:00
12:37 AM,21.2,19.4,93,30.11,0.5,Calm,Calm,-,N/A,Fog,Light Freezing Fog,0,2013-01-25 00:37:00
12:39 AM,21.2,19.4,93,30.11,0.7,Calm,Calm,-,N/A,,Clear,0,2013-01-25 00:39:00
12:44 AM,21.2,19.4,93,30.11,0.5,ESE,1.2,-,N/A,Fog,Light Freezing Fog,120,2013-01-25 00:44:00
12:46 AM,21.2,19.4,93,30.11,0.5,Calm,Calm,-,N/A,Fog,Light Freezing Fog,360,2013-01-25 00:46:00
12:54 AM,21.2,19.4,93,30.11,0.5,Calm,Calm,-,N/A,Fog,Light Freezing Fog,0,2013-01-25 00:54:00
12:55 AM,21.2,19.4,93,30.11,0.5,Calm,Calm,-,N/A,Fog,Light Freezing Fog,0,2013-01-25 00:55:00
12:56 AM,21.2,19.4,93,30.11,0.7,Calm,Calm,-,N/A,,Clear,0,2013-01-25 00:56:00
12:58 AM,21.2,19.4,93,30.12,0.7,Calm,Calm,-,0.00,,Clear,330,2013-01-25 00:58:00
12:59 AM,21.2,19.4,93,30.11,1.0,SSW,2.3,-,N/A,,Clear,200,2013-01-25 00:59:00
1:01 AM,21.2,19.4,93,30.11,1.2,Calm,Calm,-,N/A,,Clear,350,2013-01-25 01:01:00
1:02 AM,21.2,19.4,93,30.11,1.0,Calm,Calm,-,N/A,,Clear,40,2013-01-25 01:02:00
1:04 AM,21.2,19.4,93,30.11,0.7,Variable,1.2,-,N/A,,Clear,0,2013-01-25 01:04:00
1:07 AM,21.2,19.4,93,30.11,0.7,East,1.2,-,N/A,,Clear,100,2013-01-25 01:07:00
1:10 AM,21.2,19.4,93,30.11,0.5,ENE,2.3,-,N/A,Fog,Light Freezing Fog,70,2013-01-25 01:10:00
1:13 AM,21.2,19.4,93,30.10,0.7,Calm,Calm,-,N/A,,Clear,40,2013-01-25 01:13:00
1:23 AM,21.2,19.4,93,30.10,0.5,Calm,Calm,-,N/A,Fog,Light Freezing Fog,0,2013-01-25 01:23:00
1:25 AM,19.4,17.6,93,30.10,0.5,SSW,1.2,-,N/A,Fog,Light Freezing Fog,210,2013-01-25 01:25:00
1:57 AM,19.4,17.6,93,30.10,0.7,Calm,Calm,-,N/A,,Clear,0,2013-01-25 01:57:00
1:58 AM,19.4,17.6,93,30.12,0.7,Calm,Calm,-,N/A,,Clear,20,2013-01-25 01:58:00
1:59 AM,19.4,17.6,93,30.10,0.7,ESE,2.3,-,N/A,,Clear,120,2013-01-25 01:59:00
2:00 AM,19.4,17.6,93,30.10,1.0,SE,2.3,-,N/A,,Clear,130,2013-01-25 02:00:00
2:03 AM,19.4,17.6,93,30.10,1.2,ESE,2.3,-,N/A,,Clear,120,2013-01-25 02:03:00
2:05 AM,19.4,17.6,93,30.10,1.5,ESE,2.3,-,N/A,,Clear,120,2013-01-25 02:05:00
2:07 AM,19.4,17.6,93,30.10,1.7,ESE,2.3,-,N/A,,Clear,120,2013-01-25 02:07:00
2:08 AM,19.4,19.4,100,30.10,-9999.0,East,1.2,-,N/A,,Clear,80,2013-01-25 02:08:00
2:09 AM,19.4,19.4,100,30.10,2.5,Calm,Calm,-,N/A,,Clear,10,2013-01-25 02:09:00
2:11 AM,19.4,19.4,100,30.10,3.1,Calm,Calm,-,N/A,,Clear,0,2013-01-25 02:11:00
2:24 AM,21.2,19.4,93,30.09,2.5,East,1.2,-,N/A,,Clear,100,2013-01-25 02:24:00
2:25 AM,21.2,19.4,93,30.09,-9999.0,Calm,Calm,-,N/A,,Clear,40,2013-01-25 02:25:00
2:28 AM,19.4,19.4,100,30.09,1.7,SE,1.2,-,N/A,,Clear,130,2013-01-25 02:28:00
2:29 AM,19.4,19.4,100,30.09,1.7,SE,2.3,-,N/A,,Clear,130,2013-01-25 02:29:00
2:34 AM,21.2,19.4,93,30.09,-9999.0,SE,2.3,-,N/A,,Clear,130,2013-01-25 02:34:00
2:36 AM,21.2,19.4,93,30.09,-9999.0,SE,2.3,-,N/A,,Clear,130,2013-01-25 02:36:00
2:38 AM,21.2,19.4,93,30.09,2.5,SE,2.3,-,N/A,,Clear,140,2013-01-25 02:38:00
2:45 AM,19.4,17.6,93,30.09,3.1,SSE,1.2,-,N/A,,Clear,160,2013-01-25 02:45:00
2:58 AM,19.0,17.2,93,30.10,5.0,Calm,Calm,-,N/A,,Clear,0,2013-01-25 02:58:00
3:58 AM,19.4,17.8,93,30.10,5.6,Calm,Calm,-,N/A,,Clear,360,2013-01-25 03:58:00
4:58 AM,18.0,16.2,93,30.09,5.6,SE,2.3,-,N/A,,Clear,130,2013-01-25 04:58:00
5:58 AM,17.1,14.9,91,30.09,5.6,ESE,1.2,-,N/A,,Clear,110,2013-01-25 05:58:00
6:58 AM,16.9,15.1,93,30.09,6.2,Calm,Calm,-,N/A,,Clear,10,2013-01-25 06:58:00
7:58 AM,17.2,15.3,92,30.09,6.2,Calm,Calm,-,N/A,,Clear,0,2013-01-25 07:58:00
8:58 AM,18.9,17.1,93,30.07,6.2,SE,3.5,-,N/A,,Clear,130,2013-01-25 08:58:00
9:18 AM,21.2,21.2,100,30.05,6.2,SSE,3.5,-,N/A,,Freezing Rain,160,2013-01-25 09:18:00
9:20 AM,23.0,21.2,93,30.06,6.2,SSE,3.5,-,N/A,,Clear,160,2013-01-25 09:20:00
9:34 AM,24.8,24.8,100,30.05,6.2,South,4.6,-,N/A,,Freezing Rain,170,2013-01-25 09:34:00
9:39 AM,24.8,24.8,100,30.05,6.2,South,5.8,-,N/A,,Light Freezing Drizzle,170,2013-01-25 09:39:00
9:53 AM,26.6,24.8,93,30.04,6.2,South,6.9,-,N/A,,Overcast,170,2013-01-25 09:53:00
9:58 AM,26.4,25.7,97,30.05,6.2,South,6.9,-,N/A,,Overcast,170,2013-01-25 09:58:00
10:49 AM,28.4,28.4,100,30.03,6.2,SSE,6.9,-,N/A,,Freezing Rain,160,2013-01-25 10:49:00
10:58 AM,29.5,28.4,96,30.04,6.2,SSE,8.1,-,0.00,,Freezing Rain,160,2013-01-25 10:58:00
11:45 AM,32.0,26.6,80,30.00,6.2,SSE,9.2,-,N/A,,Drizzle,160,2013-01-25 11:45:00
11:58 AM,32.4,26.6,79,30.01,6.2,SSE,10.4,-,N/A,,Overcast,160,2013-01-25 11:58:00
12:37 PM,32.0,24.8,75,29.98,6.2,South,9.2,-,N/A,,Drizzle,170,2013-01-25 12:37:00
12:58 PM,33.6,25.5,72,29.97,6.2,South,11.5,-,N/A,,Overcast,170,2013-01-25 12:58:00
12:59 PM,32.0,24.8,75,29.96,6.2,SSE,12.7,-,N/A,,Drizzle,160,2013-01-25 12:59:00
1:58 PM,34.0,26.1,73,29.94,6.2,South,9.2,-,0.00,,Drizzle,180,2013-01-25 13:58:00
2:29 PM,33.8,26.6,75,29.92,6.2,SSE,10.4,-,N/A,,Drizzle,160,2013-01-25 14:29:00
2:58 PM,33.8,27.0,76,29.91,6.2,SSE,10.4,-,0.00,,Drizzle,160,2013-01-25 14:58:00
3:25 PM,32.0,28.4,87,29.87,6.2,SSE,9.2,-,N/A,,Drizzle,160,2013-01-25 15:25:00
3:58 PM,32.7,28.2,83,29.87,6.2,SSE,11.5,-,0.00,,Drizzle,150,2013-01-25 15:58:00
4:58 PM,31.5,26.1,80,29.83,6.2,SSE,16.1,-,0.00,,Freezing Rain,160,2013-01-25 16:58:00
5:58 PM,30.2,25.5,83,29.81,6.2,SSE,15.0,-,0.00,,Freezing Rain,160,2013-01-25 17:58:00
6:58 PM,30.2,25.9,84,29.75,6.2,SSE,19.6,24.2,0.00,,Freezing Rain,160,2013-01-25 18:58:00
7:38 PM,32.0,26.6,80,29.72,6.2,SSE,15.0,20.7,N/A,,Drizzle,160,2013-01-25 19:38:00
7:58 PM,30.7,26.4,84,29.73,6.2,SSE,12.7,24.2,0.00,,Freezing Rain,160,2013-01-25 19:58:00
8:33 PM,32.0,26.6,80,29.69,6.2,SSE,10.4,20.7,N/A,,Drizzle,150,2013-01-25 20:33:00
8:39 PM,32.0,26.6,80,29.68,6.2,SSE,13.8,20.7,N/A,,Drizzle,150,2013-01-25 20:39:00
8:58 PM,31.5,27.5,85,29.68,6.2,SSE,12.7,23.0,0.00,,Freezing Rain,150,2013-01-25 20:58:00
9:56 PM,32.0,28.4,87,29.63,6.2,SSE,10.4,21.9,N/A,,Drizzle,150,2013-01-25 21:56:00
9:58 PM,32.4,28.9,87,29.64,6.2,SSE,11.5,21.9,0.00,,Drizzle,150,2013-01-25 21:58:00
10:04 PM,32.0,28.4,87,29.63,6.2,SSE,11.5,-,N/A,,Overcast,150,2013-01-25 22:04:00
10:58 PM,33.4,30.7,90,29.63,6.2,SSE,12.7,-,0.00,,Overcast,160,2013-01-25 22:58:00
11:39 PM,33.8,32.0,93,29.61,6.2,SSE,10.4,-,N/A,,Overcast,150,2013-01-25 23:39:00
11:42 PM,33.8,32.0,93,29.60,5.6,SSE,11.5,-,N/A,Rain,Light Rain,150,2013-01-25 23:42:00
11:58 PM,34.5,31.6,89,29.60,5.0,SSE,13.8,-,0.00,Rain,Light Rain,150,2013-01-25 23:58:00